sensor_id;sensor_type;location;lat;lon;timestamp;P1;durP1;ratioP1;P2;durP2;ratioP2
60873;SDS011;46715;40.642;-7.920;2022-09-14T00:01:30;18.70;;;3.63;;
60873;SDS011;46715;40.642;-7.920;2022-09-14T00:03:33;16.63;;;3.70;;
60873;SDS011;46715;40.642;-7.920;2022-09-14T00:05:34;17.43;;;3.80;;
60873;SDS011;46715;40.642;-7.920;2022-09-14T00:07:36;18.90;;;4.18;;
60873;SDS011;46715;40.642;-7.920;2022-09-14T00:09:37;21.53;;;3.80;;
60873;SDS011;46715;40.642;-7.920;2022-09-14T00:11:37;16.43;;;4.20;;
60873;SDS011;46715;40.642;-7.920;2022-09-14T00:13:41;13.63;;;3.60;;
60873;SDS011;46715;40.642;-7.920;2022-09-14T00:15:43;20.90;;;3.80;;
60873;SDS011;46715;40.642;-7.920;2022-09-14T00:17:45;10.05;;;3.28;;
60873;SDS011;46715;40.642;-7.920;2022-09-14T00:19:46;10.35;;;3.05;;
60873;SDS011;46715;40.642;-7.920;2022-09-14T00:21:49;9.27;;;2.60;;
60873;SDS011;46715;40.642;-7.920;2022-09-14T00:23:53;9.73;;;3.03;;
60873;SDS011;46715;40.642;-7.920;2022-09-14T00:25:54;12.80;;;2.95;;
60873;SDS011;46715;40.642;-7.920;2022-09-14T00:27:55;9.90;;;3.60;;
60873;SDS011;46715;40.642;-7.920;2022-09-14T00:29:57;15.63;;;3.97;;
60873;SDS011;46715;40.642;-7.920;2022-09-14T00:31:58;7.60;;;3.90;;
60873;SDS011;46715;40.642;-7.920;2022-09-14T00:33:59;14.10;;;3.65;;
60873;SDS011;46715;40.642;-7.920;2022-09-14T00:36:09;13.73;;;3.30;;
60873;SDS011;46715;40.642;-7.920;2022-09-14T00:38:14;6.68;;;2.13;;
60873;SDS011;46715;40.642;-7.920;2022-09-14T00:40:15;11.57;;;3.13;;
60873;SDS011;46715;40.642;-7.920;2022-09-14T00:42:16;4.93;;;2.37;;
60873;SDS011;46715;40.642;-7.920;2022-09-14T00:46:19;9.43;;;2.00;;
60873;SDS011;46715;40.642;-7.920;2022-09-14T00:48:21;7.07;;;2.20;;
60873;SDS011;46715;40.642;-7.920;2022-09-14T00:50:24;6.93;;;1.85;;
60873;SDS011;46715;40.642;-7.920;2022-09-14T00:52:27;4.22;;;1.80;;
60873;SDS011;46715;40.642;-7.920;2022-09-14T00:54:30;10.60;;;2.72;;
60873;SDS011;46715;40.642;-7.920;2022-09-14T00:56:31;10.43;;;2.70;;
60873;SDS011;46715;40.642;-7.920;2022-09-14T00:58:31;8.40;;;1.97;;
60873;SDS011;46715;40.642;-7.920;2022-09-14T01:00:32;6.33;;;2.00;;
60873;SDS011;46715;40.642;-7.920;2022-09-14T01:02:33;4.28;;;1.60;;
60873;SDS011;46715;40.642;-7.920;2022-09-14T01:04:34;8.82;;;2.03;;
60873;SDS011;46715;40.642;-7.920;2022-09-14T01:06:38;5.80;;;1.75;;
60873;SDS011;46715;40.642;-7.920;2022-09-14T01:08:52;6.78;;;1.60;;
60873;SDS011;46715;40.642;-7.920;2022-09-14T01:11:19;6.97;;;1.70;;
60873;SDS011;46715;40.642;-7.920;2022-09-14T01:13:52;6.28;;;1.50;;
60873;SDS011;46715;40.642;-7.920;2022-09-14T01:18:15;6.20;;;1.70;;
60873;SDS011;46715;40.642;-7.920;2022-09-14T01:20:26;4.00;;;1.70;;
60873;SDS011;46715;40.642;-7.920;2022-09-14T01:23:17;6.95;;;1.75;;
60873;SDS011;46715;40.642;-7.920;2022-09-14T01:25:09;8.90;;;2.10;;
60873;SDS011;46715;40.642;-7.920;2022-09-14T01:31:55;4.00;;;1.48;;
60873;SDS011;46715;40.642;-7.920;2022-09-14T01:34:07;2.78;;;1.30;;
60873;SDS011;46715;40.642;-7.920;2022-09-14T01:36:14;3.63;;;1.30;;
60873;SDS011;46715;40.642;-7.920;2022-09-14T01:40:43;4.72;;;1.50;;
60873;SDS011;46715;40.642;-7.920;2022-09-14T01:42:49;4.80;;;1.50;;
60873;SDS011;46715;40.642;-7.920;2022-09-14T01:44:54;9.75;;;1.67;;
60873;SDS011;46715;40.642;-7.920;2022-09-14T01:47:11;3.50;;;1.20;;
60873;SDS011;46715;40.642;-7.920;2022-09-14T01:49:29;7.50;;;1.97;;
60873;SDS011;46715;40.642;-7.920;2022-09-14T01:51:35;3.40;;;1.48;;
60873;SDS011;46715;40.642;-7.920;2022-09-14T01:53:45;4.35;;;1.40;;
60873;SDS011;46715;40.642;-7.920;2022-09-14T01:56:06;4.68;;;1.38;;
60873;SDS011;46715;40.642;-7.920;2022-09-14T01:58:17;5.88;;;1.75;;
60873;SDS011;46715;40.642;-7.920;2022-09-14T02:00:20;2.92;;;1.13;;
60873;SDS011;46715;40.642;-7.920;2022-09-14T02:04:30;3.22;;;1.35;;
60873;SDS011;46715;40.642;-7.920;2022-09-14T02:06:42;2.83;;;1.27;;
60873;SDS011;46715;40.642;-7.920;2022-09-14T02:08:46;5.30;;;1.25;;
60873;SDS011;46715;40.642;-7.920;2022-09-14T02:10:47;6.00;;;1.50;;
60873;SDS011;46715;40.642;-7.920;2022-09-14T02:12:49;5.93;;;1.35;;
60873;SDS011;46715;40.642;-7.920;2022-09-14T02:16:52;2.72;;;1.25;;
60873;SDS011;46715;40.642;-7.920;2022-09-14T02:18:53;4.63;;;1.30;;
60873;SDS011;46715;40.642;-7.920;2022-09-14T02:21:01;5.65;;;1.75;;
60873;SDS011;46715;40.642;-7.920;2022-09-14T02:23:05;4.93;;;1.40;;
60873;SDS011;46715;40.642;-7.920;2022-09-14T02:25:07;2.22;;;1.25;;
60873;SDS011;46715;40.642;-7.920;2022-09-14T02:27:08;2.37;;;1.13;;
60873;SDS011;46715;40.642;-7.920;2022-09-14T02:29:08;4.50;;;1.43;;
60873;SDS011;46715;40.642;-7.920;2022-09-14T02:35:46;2.75;;;1.25;;
60873;SDS011;46715;40.642;-7.920;2022-09-14T02:42:33;3.92;;;1.23;;
60873;SDS011;46715;40.642;-7.920;2022-09-14T02:44:38;1.95;;;1.17;;
60873;SDS011;46715;40.642;-7.920;2022-09-14T02:51:44;4.82;;;1.15;;
60873;SDS011;46715;40.642;-7.920;2022-09-14T02:53:48;2.47;;;1.10;;
60873;SDS011;46715;40.642;-7.920;2022-09-14T02:55:56;1.65;;;0.90;;
60873;SDS011;46715;40.642;-7.920;2022-09-14T03:00:07;4.57;;;1.17;;
60873;SDS011;46715;40.642;-7.920;2022-09-14T03:02:08;1.98;;;1.10;;
60873;SDS011;46715;40.642;-7.920;2022-09-14T03:04:09;5.47;;;0.90;;
60873;SDS011;46715;40.642;-7.920;2022-09-14T03:06:10;3.47;;;1.30;;
60873;SDS011;46715;40.642;-7.920;2022-09-14T03:08:11;6.77;;;1.20;;
60873;SDS011;46715;40.642;-7.920;2022-09-14T03:10:11;2.85;;;1.15;;
60873;SDS011;46715;40.642;-7.920;2022-09-14T03:12:12;4.07;;;1.57;;
60873;SDS011;46715;40.642;-7.920;2022-09-14T03:14:13;2.97;;;0.90;;
60873;SDS011;46715;40.642;-7.920;2022-09-14T03:16:14;6.57;;;1.17;;
60873;SDS011;46715;40.642;-7.920;2022-09-14T03:18:16;2.47;;;1.10;;
60873;SDS011;46715;40.642;-7.920;2022-09-14T03:20:23;3.97;;;1.10;;
60873;SDS011;46715;40.642;-7.920;2022-09-14T03:22:25;1.70;;;1.00;;
60873;SDS011;46715;40.642;-7.920;2022-09-14T03:24:26;2.73;;;1.00;;
60873;SDS011;46715;40.642;-7.920;2022-09-14T03:26:27;5.57;;;1.30;;
60873;SDS011;46715;40.642;-7.920;2022-09-14T03:28:33;3.05;;;1.10;;
60873;SDS011;46715;40.642;-7.920;2022-09-14T03:30:34;3.67;;;1.20;;
60873;SDS011;46715;40.642;-7.920;2022-09-14T03:32:35;2.67;;;1.20;;
60873;SDS011;46715;40.642;-7.920;2022-09-14T03:34:35;3.33;;;1.23;;
60873;SDS011;46715;40.642;-7.920;2022-09-14T03:36:37;2.72;;;1.20;;
60873;SDS011;46715;40.642;-7.920;2022-09-14T03:38:37;3.30;;;1.10;;
60873;SDS011;46715;40.642;-7.920;2022-09-14T03:40:42;8.50;;;1.52;;
60873;SDS011;46715;40.642;-7.920;2022-09-14T03:42:43;4.00;;;1.27;;
60873;SDS011;46715;40.642;-7.920;2022-09-14T03:44:47;2.55;;;1.13;;
60873;SDS011;46715;40.642;-7.920;2022-09-14T03:46:47;3.70;;;1.17;;
60873;SDS011;46715;40.642;-7.920;2022-09-14T03:48:48;3.60;;;1.13;;
60873;SDS011;46715;40.642;-7.920;2022-09-14T03:50:50;4.50;;;1.08;;
60873;SDS011;46715;40.642;-7.920;2022-09-14T03:52:50;3.63;;;1.17;;
60873;SDS011;46715;40.642;-7.920;2022-09-14T03:54:51;3.10;;;1.13;;
60873;SDS011;46715;40.642;-7.920;2022-09-14T03:56:52;5.63;;;1.07;;
60873;SDS011;46715;40.642;-7.920;2022-09-14T03:58:53;4.55;;;1.20;;
60873;SDS011;46715;40.642;-7.920;2022-09-14T04:00:54;4.27;;;0.90;;
60873;SDS011;46715;40.642;-7.920;2022-09-14T04:02:55;5.50;;;1.13;;
60873;SDS011;46715;40.642;-7.920;2022-09-14T04:04:55;3.00;;;1.07;;
60873;SDS011;46715;40.642;-7.920;2022-09-14T04:06:56;6.70;;;1.57;;
60873;SDS011;46715;40.642;-7.920;2022-09-14T04:08:57;5.23;;;1.53;;
60873;SDS011;46715;40.642;-7.920;2022-09-14T04:10:58;4.90;;;1.30;;
60873;SDS011;46715;40.642;-7.920;2022-09-14T04:12:59;3.43;;;1.17;;
60873;SDS011;46715;40.642;-7.920;2022-09-14T04:15:01;5.45;;;1.27;;
60873;SDS011;46715;40.642;-7.920;2022-09-14T04:17:02;5.90;;;1.20;;
60873;SDS011;46715;40.642;-7.920;2022-09-14T04:19:03;3.03;;;1.00;;
60873;SDS011;46715;40.642;-7.920;2022-09-14T04:23:07;2.60;;;1.05;;
60873;SDS011;46715;40.642;-7.920;2022-09-14T04:25:08;1.83;;;1.00;;
60873;SDS011;46715;40.642;-7.920;2022-09-14T04:27:09;2.93;;;0.87;;
60873;SDS011;46715;40.642;-7.920;2022-09-14T04:29:11;7.53;;;1.10;;
60873;SDS011;46715;40.642;-7.920;2022-09-14T04:31:13;5.53;;;1.20;;
60873;SDS011;46715;40.642;-7.920;2022-09-14T04:33:14;3.97;;;1.15;;
60873;SDS011;46715;40.642;-7.920;2022-09-14T04:35:15;4.77;;;1.27;;
60873;SDS011;46715;40.642;-7.920;2022-09-14T04:37:16;7.67;;;1.00;;
60873;SDS011;46715;40.642;-7.920;2022-09-14T04:39:16;2.47;;;1.87;;
60873;SDS011;46715;40.642;-7.920;2022-09-14T04:41:18;4.72;;;1.10;;
60873;SDS011;46715;40.642;-7.920;2022-09-14T04:43:20;3.60;;;1.00;;
60873;SDS011;46715;40.642;-7.920;2022-09-14T04:45:21;5.77;;;1.13;;
60873;SDS011;46715;40.642;-7.920;2022-09-14T04:47:21;2.60;;;0.90;;
60873;SDS011;46715;40.642;-7.920;2022-09-14T04:49:22;7.73;;;1.40;;
60873;SDS011;46715;40.642;-7.920;2022-09-14T04:51:24;4.83;;;0.93;;
60873;SDS011;46715;40.642;-7.920;2022-09-14T04:53:32;2.03;;;1.20;;
60873;SDS011;46715;40.642;-7.920;2022-09-14T04:55:33;2.92;;;1.10;;
60873;SDS011;46715;40.642;-7.920;2022-09-14T04:57:35;3.97;;;1.00;;
60873;SDS011;46715;40.642;-7.920;2022-09-14T04:59:35;4.37;;;1.30;;
60873;SDS011;46715;40.642;-7.920;2022-09-14T05:01:37;5.60;;;0.97;;
60873;SDS011;46715;40.642;-7.920;2022-09-14T05:03:40;3.40;;;1.50;;
60873;SDS011;46715;40.642;-7.920;2022-09-14T05:07:42;4.80;;;1.30;;
60873;SDS011;46715;40.642;-7.920;2022-09-14T05:09:43;5.10;;;1.17;;
60873;SDS011;46715;40.642;-7.920;2022-09-14T05:11:44;2.70;;;1.02;;
60873;SDS011;46715;40.642;-7.920;2022-09-14T05:13:45;8.00;;;1.23;;
60873;SDS011;46715;40.642;-7.920;2022-09-14T05:15:47;4.15;;;0.85;;
60873;SDS011;46715;40.642;-7.920;2022-09-14T05:17:49;3.25;;;1.08;;
60873;SDS011;46715;40.642;-7.920;2022-09-14T05:19:50;5.63;;;1.17;;
60873;SDS011;46715;40.642;-7.920;2022-09-14T05:21:51;3.88;;;1.30;;
60873;SDS011;46715;40.642;-7.920;2022-09-14T05:23:52;2.67;;;0.90;;
60873;SDS011;46715;40.642;-7.920;2022-09-14T05:25:55;5.22;;;1.30;;
60873;SDS011;46715;40.642;-7.920;2022-09-14T05:27:56;3.07;;;1.10;;
60873;SDS011;46715;40.642;-7.920;2022-09-14T05:29:56;1.43;;;0.93;;
60873;SDS011;46715;40.642;-7.920;2022-09-14T05:31:57;5.83;;;1.30;;
60873;SDS011;46715;40.642;-7.920;2022-09-14T05:33:58;4.55;;;0.98;;
60873;SDS011;46715;40.642;-7.920;2022-09-14T05:36:06;2.22;;;0.98;;
60873;SDS011;46715;40.642;-7.920;2022-09-14T05:38:07;4.78;;;1.77;;
60873;SDS011;46715;40.642;-7.920;2022-09-14T05:40:08;4.90;;;1.40;;
60873;SDS011;46715;40.642;-7.920;2022-09-14T05:42:09;3.05;;;0.90;;
60873;SDS011;46715;40.642;-7.920;2022-09-14T05:44:10;2.97;;;0.90;;
60873;SDS011;46715;40.642;-7.920;2022-09-14T05:46:12;3.67;;;1.00;;
60873;SDS011;46715;40.642;-7.920;2022-09-14T05:48:14;4.28;;;1.30;;
60873;SDS011;46715;40.642;-7.920;2022-09-14T05:50:16;4.13;;;1.02;;
60873;SDS011;46715;40.642;-7.920;2022-09-14T05:52:17;2.70;;;1.00;;
60873;SDS011;46715;40.642;-7.920;2022-09-14T05:54:18;3.17;;;1.35;;
60873;SDS011;46715;40.642;-7.920;2022-09-14T05:56:19;3.20;;;1.10;;
60873;SDS011;46715;40.642;-7.920;2022-09-14T05:58:22;3.67;;;1.00;;
60873;SDS011;46715;40.642;-7.920;2022-09-14T06:00:22;5.37;;;1.50;;
60873;SDS011;46715;40.642;-7.920;2022-09-14T06:02:23;6.57;;;1.30;;
60873;SDS011;46715;40.642;-7.920;2022-09-14T06:04:24;3.10;;;1.00;;
60873;SDS011;46715;40.642;-7.920;2022-09-14T06:06:25;5.05;;;1.10;;
60873;SDS011;46715;40.642;-7.920;2022-09-14T06:08:26;5.07;;;1.37;;
60873;SDS011;46715;40.642;-7.920;2022-09-14T06:10:27;4.17;;;1.20;;
60873;SDS011;46715;40.642;-7.920;2022-09-14T06:12:27;5.53;;;1.40;;
60873;SDS011;46715;40.642;-7.920;2022-09-14T06:14:28;2.53;;;1.35;;
60873;SDS011;46715;40.642;-7.920;2022-09-14T06:16:29;6.63;;;1.47;;
60873;SDS011;46715;40.642;-7.920;2022-09-14T06:18:31;10.98;;;1.48;;
60873;SDS011;46715;40.642;-7.920;2022-09-14T06:20:33;3.05;;;1.20;;
60873;SDS011;46715;40.642;-7.920;2022-09-14T06:22:34;6.03;;;1.30;;
60873;SDS011;46715;40.642;-7.920;2022-09-14T06:24:34;5.77;;;1.43;;
60873;SDS011;46715;40.642;-7.920;2022-09-14T06:26:35;3.73;;;1.33;;
60873;SDS011;46715;40.642;-7.920;2022-09-14T06:28:36;4.03;;;1.50;;
60873;SDS011;46715;40.642;-7.920;2022-09-14T06:30:41;7.28;;;1.73;;
60873;SDS011;46715;40.642;-7.920;2022-09-14T06:32:42;3.97;;;1.35;;
60873;SDS011;46715;40.642;-7.920;2022-09-14T06:34:43;2.38;;;1.52;;
60873;SDS011;46715;40.642;-7.920;2022-09-14T06:36:44;7.15;;;1.38;;
60873;SDS011;46715;40.642;-7.920;2022-09-14T06:38:46;3.63;;;0.95;;
60873;SDS011;46715;40.642;-7.920;2022-09-14T06:40:54;5.35;;;1.10;;
60873;SDS011;46715;40.642;-7.920;2022-09-14T06:42:56;3.33;;;1.20;;
60873;SDS011;46715;40.642;-7.920;2022-09-14T06:45:01;12.85;;;1.48;;
60873;SDS011;46715;40.642;-7.920;2022-09-14T06:47:02;3.43;;;0.93;;
60873;SDS011;46715;40.642;-7.920;2022-09-14T06:49:08;3.20;;;1.20;;
60873;SDS011;46715;40.642;-7.920;2022-09-14T06:51:24;4.75;;;1.17;;
60873;SDS011;46715;40.642;-7.920;2022-09-14T06:53:35;2.63;;;1.10;;
60873;SDS011;46715;40.642;-7.920;2022-09-14T06:55:36;4.53;;;1.70;;
60873;SDS011;46715;40.642;-7.920;2022-09-14T06:57:37;4.80;;;1.07;;
60873;SDS011;46715;40.642;-7.920;2022-09-14T06:59:38;4.13;;;1.10;;
60873;SDS011;46715;40.642;-7.920;2022-09-14T07:01:38;2.33;;;0.97;;
60873;SDS011;46715;40.642;-7.920;2022-09-14T07:03:40;3.05;;;1.05;;
60873;SDS011;46715;40.642;-7.920;2022-09-14T07:05:43;3.47;;;1.30;;
60873;SDS011;46715;40.642;-7.920;2022-09-14T07:07:43;3.10;;;0.80;;
60873;SDS011;46715;40.642;-7.920;2022-09-14T07:09:44;7.30;;;1.50;;
60873;SDS011;46715;40.642;-7.920;2022-09-14T07:11:45;5.00;;;1.50;;
60873;SDS011;46715;40.642;-7.920;2022-09-14T07:13:47;7.60;;;2.20;;
60873;SDS011;46715;40.642;-7.920;2022-09-14T07:15:48;14.27;;;4.53;;
60873;SDS011;46715;40.642;-7.920;2022-09-14T07:17:49;9.77;;;5.00;;
60873;SDS011;46715;40.642;-7.920;2022-09-14T07:19:50;9.50;;;4.30;;
60873;SDS011;46715;40.642;-7.920;2022-09-14T07:21:51;8.43;;;3.40;;
60873;SDS011;46715;40.642;-7.920;2022-09-14T07:23:54;6.28;;;3.22;;
60873;SDS011;46715;40.642;-7.920;2022-09-14T07:25:59;6.50;;;2.77;;
60873;SDS011;46715;40.642;-7.920;2022-09-14T07:28:10;7.35;;;2.97;;
60873;SDS011;46715;40.642;-7.920;2022-09-14T07:30:11;8.93;;;4.40;;
60873;SDS011;46715;40.642;-7.920;2022-09-14T07:32:12;14.45;;;5.07;;
60873;SDS011;46715;40.642;-7.920;2022-09-14T07:34:13;9.03;;;4.90;;
60873;SDS011;46715;40.642;-7.920;2022-09-14T07:36:14;9.13;;;2.88;;
60873;SDS011;46715;40.642;-7.920;2022-09-14T07:38:15;7.30;;;1.90;;
60873;SDS011;46715;40.642;-7.920;2022-09-14T07:40:16;5.80;;;1.80;;
60873;SDS011;46715;40.642;-7.920;2022-09-14T07:42:17;4.77;;;2.13;;
60873;SDS011;46715;40.642;-7.920;2022-09-14T07:44:18;9.23;;;2.83;;
60873;SDS011;46715;40.642;-7.920;2022-09-14T07:46:19;9.77;;;3.53;;
60873;SDS011;46715;40.642;-7.920;2022-09-14T07:48:20;9.77;;;3.67;;
60873;SDS011;46715;40.642;-7.920;2022-09-14T07:50:23;12.63;;;4.45;;
60873;SDS011;46715;40.642;-7.920;2022-09-14T07:52:24;8.40;;;3.95;;
60873;SDS011;46715;40.642;-7.920;2022-09-14T07:54:24;9.30;;;3.07;;
60873;SDS011;46715;40.642;-7.920;2022-09-14T07:56:26;4.93;;;2.75;;
60873;SDS011;46715;40.642;-7.920;2022-09-14T07:58:30;4.82;;;2.05;;
60873;SDS011;46715;40.642;-7.920;2022-09-14T08:00:56;8.38;;;2.03;;
60873;SDS011;46715;40.642;-7.920;2022-09-14T08:03:02;3.55;;;2.00;;
60873;SDS011;46715;40.642;-7.920;2022-09-14T08:05:02;3.53;;;2.20;;
60873;SDS011;46715;40.642;-7.920;2022-09-14T08:07:04;6.32;;;2.08;;
60873;SDS011;46715;40.642;-7.920;2022-09-14T08:09:05;8.52;;;2.47;;
60873;SDS011;46715;40.642;-7.920;2022-09-14T08:11:12;6.90;;;2.20;;
60873;SDS011;46715;40.642;-7.920;2022-09-14T08:13:16;3.33;;;2.00;;
60873;SDS011;46715;40.642;-7.920;2022-09-14T08:17:19;4.05;;;2.00;;
60873;SDS011;46715;40.642;-7.920;2022-09-14T08:19:21;4.30;;;1.58;;
60873;SDS011;46715;40.642;-7.920;2022-09-14T08:21:23;8.13;;;1.88;;
60873;SDS011;46715;40.642;-7.920;2022-09-14T08:23:26;3.05;;;1.55;;
60873;SDS011;46715;40.642;-7.920;2022-09-14T08:25:27;3.40;;;1.43;;
60873;SDS011;46715;40.642;-7.920;2022-09-14T08:27:29;6.05;;;1.60;;
60873;SDS011;46715;40.642;-7.920;2022-09-14T08:29:30;7.10;;;2.13;;
60873;SDS011;46715;40.642;-7.920;2022-09-14T08:31:33;3.80;;;1.80;;
60873;SDS011;46715;40.642;-7.920;2022-09-14T08:33:38;3.30;;;1.70;;
60873;SDS011;46715;40.642;-7.920;2022-09-14T08:35:41;3.40;;;1.60;;
60873;SDS011;46715;40.642;-7.920;2022-09-14T08:37:43;2.33;;;1.40;;
60873;SDS011;46715;40.642;-7.920;2022-09-14T08:39:44;4.50;;;1.90;;
60873;SDS011;46715;40.642;-7.920;2022-09-14T08:43:51;6.95;;;1.58;;
60873;SDS011;46715;40.642;-7.920;2022-09-14T08:47:56;3.30;;;1.30;;
60873;SDS011;46715;40.642;-7.920;2022-09-14T08:52:08;6.50;;;1.90;;
60873;SDS011;46715;40.642;-7.920;2022-09-14T08:54:37;4.03;;;1.33;;
60873;SDS011;46715;40.642;-7.920;2022-09-14T08:56:39;5.23;;;1.23;;
60873;SDS011;46715;40.642;-7.920;2022-09-14T09:03:22;7.35;;;1.55;;
60873;SDS011;46715;40.642;-7.920;2022-09-14T09:08:00;3.35;;;0.98;;
60873;SDS011;46715;40.642;-7.920;2022-09-14T09:10:09;3.65;;;1.00;;
60873;SDS011;46715;40.642;-7.920;2022-09-14T09:12:16;3.28;;;1.10;;
60873;SDS011;46715;40.642;-7.920;2022-09-14T09:14:20;4.15;;;1.20;;
60873;SDS011;46715;40.642;-7.920;2022-09-14T09:16:26;3.63;;;1.00;;
60873;SDS011;46715;40.642;-7.920;2022-09-14T09:20:52;4.97;;;1.00;;
60873;SDS011;46715;40.642;-7.920;2022-09-14T09:25:24;2.72;;;1.20;;
60873;SDS011;46715;40.642;-7.920;2022-09-14T09:27:36;2.75;;;1.05;;
60873;SDS011;46715;40.642;-7.920;2022-09-14T09:29:36;6.00;;;1.60;;
60873;SDS011;46715;40.642;-7.920;2022-09-14T09:31:44;3.70;;;1.50;;
60873;SDS011;46715;40.642;-7.920;2022-09-14T09:34:15;7.50;;;1.42;;
60873;SDS011;46715;40.642;-7.920;2022-09-14T09:36:17;6.10;;;1.60;;
60873;SDS011;46715;40.642;-7.920;2022-09-14T09:38:20;2.78;;;1.35;;
60873;SDS011;46715;40.642;-7.920;2022-09-14T09:40:27;7.57;;;1.33;;
60873;SDS011;46715;40.642;-7.920;2022-09-14T09:42:35;10.80;;;1.42;;
60873;SDS011;46715;40.642;-7.920;2022-09-14T09:44:52;6.63;;;1.40;;
60873;SDS011;46715;40.642;-7.920;2022-09-14T09:47:01;3.88;;;1.10;;
60873;SDS011;46715;40.642;-7.920;2022-09-14T09:49:03;4.53;;;1.45;;
60873;SDS011;46715;40.642;-7.920;2022-09-14T09:53:23;3.75;;;1.08;;
60873;SDS011;46715;40.642;-7.920;2022-09-14T09:55:26;2.90;;;0.95;;
60873;SDS011;46715;40.642;-7.920;2022-09-14T09:57:34;3.45;;;0.85;;
60873;SDS011;46715;40.642;-7.920;2022-09-14T10:01:40;5.82;;;1.23;;
60873;SDS011;46715;40.642;-7.920;2022-09-14T10:03:41;3.63;;;0.95;;
60873;SDS011;46715;40.642;-7.920;2022-09-14T10:05:42;3.88;;;0.90;;
60873;SDS011;46715;40.642;-7.920;2022-09-14T10:09:56;4.95;;;0.82;;
60873;SDS011;46715;40.642;-7.920;2022-09-14T10:11:59;3.58;;;0.60;;
60873;SDS011;46715;40.642;-7.920;2022-09-14T10:14:01;2.60;;;1.10;;
60873;SDS011;46715;40.642;-7.920;2022-09-14T10:16:04;3.38;;;0.90;;
60873;SDS011;46715;40.642;-7.920;2022-09-14T10:20:19;0.70;;;0.50;;
60873;SDS011;46715;40.642;-7.920;2022-09-14T10:22:35;1.80;;;0.60;;
60873;SDS011;46715;40.642;-7.920;2022-09-14T10:24:39;2.72;;;0.82;;
60873;SDS011;46715;40.642;-7.920;2022-09-14T10:26:40;8.23;;;0.90;;
60873;SDS011;46715;40.642;-7.920;2022-09-14T10:28:47;3.58;;;0.90;;
60873;SDS011;46715;40.642;-7.920;2022-09-14T10:31:00;2.30;;;0.80;;
60873;SDS011;46715;40.642;-7.920;2022-09-14T10:33:11;3.67;;;0.80;;
60873;SDS011;46715;40.642;-7.920;2022-09-14T10:35:14;1.63;;;0.80;;
60873;SDS011;46715;40.642;-7.920;2022-09-14T10:40:21;2.13;;;0.70;;
60873;SDS011;46715;40.642;-7.920;2022-09-14T10:42:18;1.63;;;0.70;;
60873;SDS011;46715;40.642;-7.920;2022-09-14T10:49:22;1.20;;;0.77;;
60873;SDS011;46715;40.642;-7.920;2022-09-14T10:51:40;1.88;;;0.73;;
60873;SDS011;46715;40.642;-7.920;2022-09-14T11:08:48;1.08;;;0.75;;
60873;SDS011;46715;40.642;-7.920;2022-09-14T11:15:42;7.15;;;1.10;;
60873;SDS011;46715;40.642;-7.920;2022-09-14T11:20:19;1.02;;;0.68;;
60873;SDS011;46715;40.642;-7.920;2022-09-14T11:25:25;2.55;;;0.82;;
60873;SDS011;46715;40.642;-7.920;2022-09-14T11:27:25;2.10;;;0.75;;
60873;SDS011;46715;40.642;-7.920;2022-09-14T11:29:37;3.58;;;1.10;;
60873;SDS011;46715;40.642;-7.920;2022-09-14T11:32:02;2.63;;;0.80;;
60873;SDS011;46715;40.642;-7.920;2022-09-14T11:36:28;2.22;;;0.63;;
60873;SDS011;46715;40.642;-7.920;2022-09-14T11:38:40;2.22;;;0.93;;
60873;SDS011;46715;40.642;-7.920;2022-09-14T11:43:10;3.03;;;0.70;;
60873;SDS011;46715;40.642;-7.920;2022-09-14T11:45:20;3.72;;;0.77;;
60873;SDS011;46715;40.642;-7.920;2022-09-14T11:47:25;2.00;;;0.80;;
60873;SDS011;46715;40.642;-7.920;2022-09-14T11:51:51;2.67;;;0.60;;
60873;SDS011;46715;40.642;-7.920;2022-09-14T11:53:56;3.00;;;0.93;;
60873;SDS011;46715;40.642;-7.920;2022-09-14T11:55:57;3.05;;;1.05;;
60873;SDS011;46715;40.642;-7.920;2022-09-14T11:57:58;3.55;;;1.17;;
60873;SDS011;46715;40.642;-7.920;2022-09-14T12:00:06;6.93;;;1.23;;
60873;SDS011;46715;40.642;-7.920;2022-09-14T12:04:27;8.57;;;2.08;;
60873;SDS011;46715;40.642;-7.920;2022-09-14T12:10:57;2.35;;;1.10;;
60873;SDS011;46715;40.642;-7.920;2022-09-14T12:17:29;3.53;;;1.27;;
60873;SDS011;46715;40.642;-7.920;2022-09-14T12:19:32;5.60;;;1.45;;
60873;SDS011;46715;40.642;-7.920;2022-09-14T12:25:54;4.20;;;1.33;;
60873;SDS011;46715;40.642;-7.920;2022-09-14T12:27:56;6.38;;;1.60;;
60873;SDS011;46715;40.642;-7.920;2022-09-14T12:29:57;4.57;;;1.50;;
60873;SDS011;46715;40.642;-7.920;2022-09-14T12:34:11;4.20;;;1.05;;
60873;SDS011;46715;40.642;-7.920;2022-09-14T12:42:29;2.28;;;0.75;;
60873;SDS011;46715;40.642;-7.920;2022-09-14T12:44:35;3.80;;;0.60;;
60873;SDS011;46715;40.642;-7.920;2022-09-14T12:46:40;2.35;;;0.50;;
60873;SDS011;46715;40.642;-7.920;2022-09-14T12:50:46;1.75;;;0.70;;
60873;SDS011;46715;40.642;-7.920;2022-09-14T13:02:01;1.75;;;0.63;;
60873;SDS011;46715;40.642;-7.920;2022-09-14T13:04:25;0.50;;;0.40;;
60873;SDS011;46715;40.642;-7.920;2022-09-14T13:06:39;1.50;;;0.60;;
60873;SDS011;46715;40.642;-7.920;2022-09-14T13:08:43;2.45;;;0.50;;
60873;SDS011;46715;40.642;-7.920;2022-09-14T13:10:46;0.65;;;0.30;;
60873;SDS011;46715;40.642;-7.920;2022-09-14T13:12:53;3.05;;;0.50;;
60873;SDS011;46715;40.642;-7.920;2022-09-14T13:14:57;0.50;;;0.50;;
60873;SDS011;46715;40.642;-7.920;2022-09-14T13:17:01;1.50;;;0.60;;
60873;SDS011;46715;40.642;-7.920;2022-09-14T13:19:05;0.93;;;0.55;;
60873;SDS011;46715;40.642;-7.920;2022-09-14T13:21:19;2.25;;;0.50;;
60873;SDS011;46715;40.642;-7.920;2022-09-14T13:23:26;0.90;;;0.50;;
60873;SDS011;46715;40.642;-7.920;2022-09-14T13:25:32;1.83;;;0.75;;
60873;SDS011;46715;40.642;-7.920;2022-09-14T13:27:35;1.63;;;0.70;;
60873;SDS011;46715;40.642;-7.920;2022-09-14T13:29:37;1.80;;;0.75;;
60873;SDS011;46715;40.642;-7.920;2022-09-14T13:31:39;1.92;;;0.65;;
60873;SDS011;46715;40.642;-7.920;2022-09-14T13:33:47;2.97;;;0.60;;
60873;SDS011;46715;40.642;-7.920;2022-09-14T13:35:54;3.15;;;0.80;;
60873;SDS011;46715;40.642;-7.920;2022-09-14T13:37:58;2.85;;;0.80;;
60873;SDS011;46715;40.642;-7.920;2022-09-14T13:40:05;0.82;;;0.70;;
60873;SDS011;46715;40.642;-7.920;2022-09-14T13:42:07;1.23;;;0.90;;
60873;SDS011;46715;40.642;-7.920;2022-09-14T13:44:09;2.05;;;0.80;;
60873;SDS011;46715;40.642;-7.920;2022-09-14T13:46:11;1.02;;;0.90;;
60873;SDS011;46715;40.642;-7.920;2022-09-14T13:48:13;1.48;;;1.08;;
60873;SDS011;46715;40.642;-7.920;2022-09-14T13:50:14;1.30;;;0.88;;
60873;SDS011;46715;40.642;-7.920;2022-09-14T13:52:34;1.15;;;0.75;;
60873;SDS011;46715;40.642;-7.920;2022-09-14T13:54:37;1.50;;;0.80;;
60873;SDS011;46715;40.642;-7.920;2022-09-14T13:56:38;1.80;;;0.98;;
60873;SDS011;46715;40.642;-7.920;2022-09-14T13:58:39;1.17;;;0.80;;
60873;SDS011;46715;40.642;-7.920;2022-09-14T14:03:02;1.45;;;0.93;;
60873;SDS011;46715;40.642;-7.920;2022-09-14T14:05:03;1.63;;;0.90;;
60873;SDS011;46715;40.642;-7.920;2022-09-14T14:09:14;3.03;;;1.10;;
60873;SDS011;46715;40.642;-7.920;2022-09-14T14:11:23;2.13;;;1.20;;
60873;SDS011;46715;40.642;-7.920;2022-09-14T14:13:27;1.10;;;0.97;;
60873;SDS011;46715;40.642;-7.920;2022-09-14T14:15:35;3.85;;;1.05;;
60873;SDS011;46715;40.642;-7.920;2022-09-14T14:17:40;1.45;;;1.35;;
60873;SDS011;46715;40.642;-7.920;2022-09-14T14:19:42;1.88;;;1.00;;
60873;SDS011;46715;40.642;-7.920;2022-09-14T14:21:42;2.85;;;0.80;;
60873;SDS011;46715;40.642;-7.920;2022-09-14T14:25:48;1.10;;;0.80;;
60873;SDS011;46715;40.642;-7.920;2022-09-14T14:27:56;1.38;;;1.00;;
60873;SDS011;46715;40.642;-7.920;2022-09-14T14:30:00;1.45;;;1.10;;
60873;SDS011;46715;40.642;-7.920;2022-09-14T14:32:03;1.58;;;1.08;;
60873;SDS011;46715;40.642;-7.920;2022-09-14T14:34:09;2.43;;;1.20;;
60873;SDS011;46715;40.642;-7.920;2022-09-14T14:36:18;3.67;;;1.15;;
60873;SDS011;46715;40.642;-7.920;2022-09-14T14:38:19;3.33;;;1.10;;
60873;SDS011;46715;40.642;-7.920;2022-09-14T14:40:23;1.80;;;0.70;;
60873;SDS011;46715;40.642;-7.920;2022-09-14T14:42:26;2.17;;;1.05;;